sensor_id;sensor_type;location;lat;lon;timestamp;P1;durP1;ratioP1;P2;durP2;ratioP2
75005;SDS011;63553;51.814;4.600;2023-03-14T00:02:21;13.07;;;5.07;;
75005;SDS011;63553;51.814;4.600;2023-03-14T00:04:47;12.20;;;5.22;;
75005;SDS011;63553;51.814;4.600;2023-03-14T00:07:12;12.75;;;5.40;;
75005;SDS011;63553;51.814;4.600;2023-03-14T00:09:38;12.02;;;4.22;;
75005;SDS011;63553;51.814;4.600;2023-03-14T00:12:04;14.73;;;5.40;;
75005;SDS011;63553;51.814;4.600;2023-03-14T00:14:29;10.65;;;4.95;;
75005;SDS011;63553;51.814;4.600;2023-03-14T00:16:56;10.15;;;4.93;;
75005;SDS011;63553;51.814;4.600;2023-03-14T00:19:22;13.43;;;5.40;;
75005;SDS011;63553;51.814;4.600;2023-03-14T00:21:47;10.60;;;4.93;;
75005;SDS011;63553;51.814;4.600;2023-03-14T00:24:12;10.80;;;4.43;;
75005;SDS011;63553;51.814;4.600;2023-03-14T00:26:38;13.35;;;5.35;;
75005;SDS011;63553;51.814;4.600;2023-03-14T00:29:03;12.18;;;4.40;;
75005;SDS011;63553;51.814;4.600;2023-03-14T00:31:28;9.63;;;4.25;;
75005;SDS011;63553;51.814;4.600;2023-03-14T00:33:54;11.30;;;4.18;;
75005;SDS011;63553;51.814;4.600;2023-03-14T00:36:20;11.10;;;4.60;;
75005;SDS011;63553;51.814;4.600;2023-03-14T00:38:47;11.70;;;4.78;;
75005;SDS011;63553;51.814;4.600;2023-03-14T00:41:15;8.20;;;3.72;;
75005;SDS011;63553;51.814;4.600;2023-03-14T00:43:42;10.85;;;4.10;;
75005;SDS011;63553;51.814;4.600;2023-03-14T00:46:08;13.75;;;4.60;;
75005;SDS011;63553;51.814;4.600;2023-03-14T00:48:34;7.20;;;3.90;;
75005;SDS011;63553;51.814;4.600;2023-03-14T00:51:00;10.55;;;4.22;;
75005;SDS011;63553;51.814;4.600;2023-03-14T00:53:25;10.25;;;4.38;;
75005;SDS011;63553;51.814;4.600;2023-03-14T00:55:51;10.93;;;4.10;;
75005;SDS011;63553;51.814;4.600;2023-03-14T00:58:17;10.60;;;4.00;;
75005;SDS011;63553;51.814;4.600;2023-03-14T01:00:43;8.43;;;3.92;;
75005;SDS011;63553;51.814;4.600;2023-03-14T01:03:09;7.50;;;3.53;;
75005;SDS011;63553;51.814;4.600;2023-03-14T01:05:35;10.18;;;4.00;;
75005;SDS011;63553;51.814;4.600;2023-03-14T01:08:01;7.72;;;3.40;;
75005;SDS011;63553;51.814;4.600;2023-03-14T01:10:27;8.93;;;3.92;;
75005;SDS011;63553;51.814;4.600;2023-03-14T01:12:53;6.68;;;3.80;;
75005;SDS011;63553;51.814;4.600;2023-03-14T01:15:18;7.20;;;3.63;;
75005;SDS011;63553;51.814;4.600;2023-03-14T01:17:44;6.32;;;3.13;;
75005;SDS011;63553;51.814;4.600;2023-03-14T01:20:10;6.90;;;3.10;;
75005;SDS011;63553;51.814;4.600;2023-03-14T01:22:38;5.80;;;3.78;;
75005;SDS011;63553;51.814;4.600;2023-03-14T01:25:08;5.85;;;3.40;;
75005;SDS011;63553;51.814;4.600;2023-03-14T01:27:35;7.82;;;3.35;;
75005;SDS011;63553;51.814;4.600;2023-03-14T01:30:00;8.47;;;3.50;;
75005;SDS011;63553;51.814;4.600;2023-03-14T01:32:25;5.57;;;3.13;;
75005;SDS011;63553;51.814;4.600;2023-03-14T01:34:51;6.13;;;3.50;;
75005;SDS011;63553;51.814;4.600;2023-03-14T01:37:17;6.72;;;3.28;;
75005;SDS011;63553;51.814;4.600;2023-03-14T01:39:42;5.55;;;3.05;;
75005;SDS011;63553;51.814;4.600;2023-03-14T01:42:08;7.55;;;3.50;;
75005;SDS011;63553;51.814;4.600;2023-03-14T01:47:17;7.22;;;3.30;;
75005;SDS011;63553;51.814;4.600;2023-03-14T01:49:44;4.57;;;2.83;;
75005;SDS011;63553;51.814;4.600;2023-03-14T01:52:13;6.50;;;3.35;;
75005;SDS011;63553;51.814;4.600;2023-03-14T01:55:07;7.93;;;3.08;;
75005;SDS011;63553;51.814;4.600;2023-03-14T01:57:32;5.95;;;3.15;;
75005;SDS011;63553;51.814;4.600;2023-03-14T02:00:23;6.68;;;3.65;;
75005;SDS011;63553;51.814;4.600;2023-03-14T02:03:02;5.80;;;2.83;;
75005;SDS011;63553;51.814;4.600;2023-03-14T02:05:32;8.15;;;2.88;;
75005;SDS011;63553;51.814;4.600;2023-03-14T02:08:01;3.90;;;2.55;;
75005;SDS011;63553;51.814;4.600;2023-03-14T02:10:30;4.88;;;2.75;;
75005;SDS011;63553;51.814;4.600;2023-03-14T02:12:59;8.93;;;3.20;;
75005;SDS011;63553;51.814;4.600;2023-03-14T02:15:26;8.60;;;3.50;;
75005;SDS011;63553;51.814;4.600;2023-03-14T02:17:52;6.45;;;2.92;;
75005;SDS011;63553;51.814;4.600;2023-03-14T02:27:51;5.38;;;3.00;;
75005;SDS011;63553;51.814;4.600;2023-03-14T02:30:19;8.20;;;2.90;;
75005;SDS011;63553;51.814;4.600;2023-03-14T02:33:10;4.72;;;2.50;;
75005;SDS011;63553;51.814;4.600;2023-03-14T02:35:39;7.38;;;2.63;;
75005;SDS011;63553;51.814;4.600;2023-03-14T02:38:10;4.40;;;2.60;;
75005;SDS011;63553;51.814;4.600;2023-03-14T02:40:43;4.13;;;2.78;;
75005;SDS011;63553;51.814;4.600;2023-03-14T02:43:10;5.63;;;2.72;;
75005;SDS011;63553;51.814;4.600;2023-03-14T02:45:37;7.03;;;3.03;;
75005;SDS011;63553;51.814;4.600;2023-03-14T02:48:13;4.88;;;2.67;;
75005;SDS011;63553;51.814;4.600;2023-03-14T02:50:41;4.70;;;2.42;;
75005;SDS011;63553;51.814;4.600;2023-03-14T02:53:08;7.40;;;2.50;;
75005;SDS011;63553;51.814;4.600;2023-03-14T02:55:33;4.60;;;2.50;;
75005;SDS011;63553;51.814;4.600;2023-03-14T02:57:59;4.78;;;2.63;;
75005;SDS011;63553;51.814;4.600;2023-03-14T03:00:24;5.63;;;2.53;;
75005;SDS011;63553;51.814;4.600;2023-03-14T03:02:50;4.97;;;2.58;;
75005;SDS011;63553;51.814;4.600;2023-03-14T03:05:15;5.00;;;3.10;;
75005;SDS011;63553;51.814;4.600;2023-03-14T03:07:41;4.32;;;2.78;;
75005;SDS011;63553;51.814;4.600;2023-03-14T03:10:06;5.37;;;2.30;;
75005;SDS011;63553;51.814;4.600;2023-03-14T03:12:32;5.45;;;2.95;;
75005;SDS011;63553;51.814;4.600;2023-03-14T03:14:57;4.57;;;2.60;;
75005;SDS011;63553;51.814;4.600;2023-03-14T03:17:22;4.20;;;2.43;;
75005;SDS011;63553;51.814;4.600;2023-03-14T03:19:48;5.00;;;2.73;;
75005;SDS011;63553;51.814;4.600;2023-03-14T03:22:13;5.17;;;2.47;;
75005;SDS011;63553;51.814;4.600;2023-03-14T03:24:38;3.83;;;2.10;;
75005;SDS011;63553;51.814;4.600;2023-03-14T03:27:03;4.67;;;2.13;;
75005;SDS011;63553;51.814;4.600;2023-03-14T03:29:29;3.53;;;2.30;;
75005;SDS011;63553;51.814;4.600;2023-03-14T03:31:55;6.60;;;2.30;;
75005;SDS011;63553;51.814;4.600;2023-03-14T03:34:20;6.28;;;3.05;;
75005;SDS011;63553;51.814;4.600;2023-03-14T03:36:46;5.80;;;2.50;;
75005;SDS011;63553;51.814;4.600;2023-03-14T03:39:11;5.67;;;2.30;;
75005;SDS011;63553;51.814;4.600;2023-03-14T03:41:36;3.83;;;2.13;;
75005;SDS011;63553;51.814;4.600;2023-03-14T03:44:02;8.13;;;2.42;;
75005;SDS011;63553;51.814;4.600;2023-03-14T03:46:27;6.47;;;2.38;;
75005;SDS011;63553;51.814;4.600;2023-03-14T03:48:56;3.67;;;2.10;;
75005;SDS011;63553;51.814;4.600;2023-03-14T03:51:23;5.57;;;2.15;;
75005;SDS011;63553;51.814;4.600;2023-03-14T03:53:48;5.50;;;2.10;;
75005;SDS011;63553;51.814;4.600;2023-03-14T03:56:14;3.47;;;2.00;;
75005;SDS011;63553;51.814;4.600;2023-03-14T03:58:39;3.55;;;1.95;;
75005;SDS011;63553;51.814;4.600;2023-03-14T04:01:05;5.90;;;2.20;;
75005;SDS011;63553;51.814;4.600;2023-03-14T04:03:34;4.80;;;2.13;;
75005;SDS011;63553;51.814;4.600;2023-03-14T04:08:32;5.00;;;2.08;;
75005;SDS011;63553;51.814;4.600;2023-03-14T04:10:58;2.65;;;1.70;;
75005;SDS011;63553;51.814;4.600;2023-03-14T04:13:25;4.57;;;2.17;;
75005;SDS011;63553;51.814;4.600;2023-03-14T04:15:51;3.33;;;1.80;;
75005;SDS011;63553;51.814;4.600;2023-03-14T04:18:17;4.78;;;1.80;;
75005;SDS011;63553;51.814;4.600;2023-03-14T04:20:43;4.88;;;2.03;;
75005;SDS011;63553;51.814;4.600;2023-03-14T04:23:09;5.18;;;2.00;;
75005;SDS011;63553;51.814;4.600;2023-03-14T04:25:34;5.15;;;1.85;;
75005;SDS011;63553;51.814;4.600;2023-03-14T04:28:00;4.70;;;1.80;;
75005;SDS011;63553;51.814;4.600;2023-03-14T04:30:26;2.80;;;1.83;;
75005;SDS011;63553;51.814;4.600;2023-03-14T04:32:51;4.40;;;2.30;;
75005;SDS011;63553;51.814;4.600;2023-03-14T04:35:16;3.77;;;1.83;;
75005;SDS011;63553;51.814;4.600;2023-03-14T04:37:41;3.30;;;2.00;;
75005;SDS011;63553;51.814;4.600;2023-03-14T04:40:08;3.10;;;1.58;;
75005;SDS011;63553;51.814;4.600;2023-03-14T04:42:34;3.55;;;1.70;;
75005;SDS011;63553;51.814;4.600;2023-03-14T04:45:00;5.20;;;1.83;;
75005;SDS011;63553;51.814;4.600;2023-03-14T04:47:25;2.47;;;1.70;;
75005;SDS011;63553;51.814;4.600;2023-03-14T04:49:51;2.83;;;1.90;;
75005;SDS011;63553;51.814;4.600;2023-03-14T04:52:16;3.50;;;1.60;;
75005;SDS011;63553;51.814;4.600;2023-03-14T04:54:42;4.57;;;1.88;;
75005;SDS011;63553;51.814;4.600;2023-03-14T04:57:07;2.22;;;1.45;;
75005;SDS011;63553;51.814;4.600;2023-03-14T04:59:32;3.27;;;1.50;;
75005;SDS011;63553;51.814;4.600;2023-03-14T05:01:58;3.47;;;1.77;;
75005;SDS011;63553;51.814;4.600;2023-03-14T05:04:23;1.87;;;1.60;;
75005;SDS011;63553;51.814;4.600;2023-03-14T05:06:49;3.72;;;1.65;;
75005;SDS011;63553;51.814;4.600;2023-03-14T05:09:14;2.55;;;1.50;;
75005;SDS011;63553;51.814;4.600;2023-03-14T05:11:40;4.07;;;1.60;;
75005;SDS011;63553;51.814;4.600;2023-03-14T05:14:05;4.17;;;1.50;;
75005;SDS011;63553;51.814;4.600;2023-03-14T05:16:30;4.60;;;1.60;;
75005;SDS011;63553;51.814;4.600;2023-03-14T05:18:56;2.35;;;1.40;;
75005;SDS011;63553;51.814;4.600;2023-03-14T05:21:21;2.17;;;1.57;;
75005;SDS011;63553;51.814;4.600;2023-03-14T05:23:46;2.67;;;1.50;;
75005;SDS011;63553;51.814;4.600;2023-03-14T05:26:13;51.40;;;16.63;;
75005;SDS011;63553;51.814;4.600;2023-03-14T05:28:38;23.50;;;7.55;;
75005;SDS011;63553;51.814;4.600;2023-03-14T05:31:07;35.30;;;7.83;;
75005;SDS011;63553;51.814;4.600;2023-03-14T05:33:33;19.52;;;6.20;;
75005;SDS011;63553;51.814;4.600;2023-03-14T05:35:59;27.90;;;7.03;;
75005;SDS011;63553;51.814;4.600;2023-03-14T05:38:24;20.33;;;5.17;;
75005;SDS011;63553;51.814;4.600;2023-03-14T05:40:49;33.03;;;15.93;;
75005;SDS011;63553;51.814;4.600;2023-03-14T05:43:15;213.60;;;32.92;;
75005;SDS011;63553;51.814;4.600;2023-03-14T05:45:41;73.55;;;15.30;;
75005;SDS011;63553;51.814;4.600;2023-03-14T05:48:07;49.92;;;13.10;;
75005;SDS011;63553;51.814;4.600;2023-03-14T05:50:32;43.65;;;12.43;;
75005;SDS011;63553;51.814;4.600;2023-03-14T05:52:58;35.40;;;10.35;;
75005;SDS011;63553;51.814;4.600;2023-03-14T05:55:24;33.57;;;10.43;;
75005;SDS011;63553;51.814;4.600;2023-03-14T05:57:49;23.95;;;8.90;;
75005;SDS011;63553;51.814;4.600;2023-03-14T06:00:15;22.63;;;8.00;;
75005;SDS011;63553;51.814;4.600;2023-03-14T06:02:40;23.13;;;6.70;;
75005;SDS011;63553;51.814;4.600;2023-03-14T06:05:06;17.10;;;6.70;;
75005;SDS011;63553;51.814;4.600;2023-03-14T06:07:32;21.13;;;6.65;;
75005;SDS011;63553;51.814;4.600;2023-03-14T06:09:57;16.20;;;6.03;;
75005;SDS011;63553;51.814;4.600;2023-03-14T06:12:23;17.25;;;6.13;;
75005;SDS011;63553;51.814;4.600;2023-03-14T06:14:49;15.52;;;5.63;;
75005;SDS011;63553;51.814;4.600;2023-03-14T06:17:15;17.25;;;5.00;;
75005;SDS011;63553;51.814;4.600;2023-03-14T06:19:41;14.57;;;5.00;;
75005;SDS011;63553;51.814;4.600;2023-03-14T06:22:06;11.07;;;4.38;;
75005;SDS011;63553;51.814;4.600;2023-03-14T06:24:31;13.13;;;4.87;;
75005;SDS011;63553;51.814;4.600;2023-03-14T06:26:57;9.98;;;4.38;;
75005;SDS011;63553;51.814;4.600;2023-03-14T06:29:22;8.07;;;4.53;;
75005;SDS011;63553;51.814;4.600;2023-03-14T06:31:47;11.03;;;5.20;;
75005;SDS011;63553;51.814;4.600;2023-03-14T06:34:13;10.80;;;4.18;;
75005;SDS011;63553;51.814;4.600;2023-03-14T06:36:38;7.15;;;3.22;;
75005;SDS011;63553;51.814;4.600;2023-03-14T06:39:04;7.90;;;3.97;;
75005;SDS011;63553;51.814;4.600;2023-03-14T06:41:29;11.82;;;3.28;;
75005;SDS011;63553;51.814;4.600;2023-03-14T06:43:54;7.10;;;3.63;;
75005;SDS011;63553;51.814;4.600;2023-03-14T06:46:20;7.75;;;3.70;;
75005;SDS011;63553;51.814;4.600;2023-03-14T06:48:45;7.43;;;2.63;;
75005;SDS011;63553;51.814;4.600;2023-03-14T06:51:11;6.80;;;2.83;;
75005;SDS011;63553;51.814;4.600;2023-03-14T06:53:36;4.72;;;2.40;;
75005;SDS011;63553;51.814;4.600;2023-03-14T06:56:02;6.35;;;2.35;;
75005;SDS011;63553;51.814;4.600;2023-03-14T06:58:27;4.45;;;2.33;;
75005;SDS011;63553;51.814;4.600;2023-03-14T07:00:53;4.43;;;2.38;;
75005;SDS011;63553;51.814;4.600;2023-03-14T07:03:19;5.05;;;2.17;;
75005;SDS011;63553;51.814;4.600;2023-03-14T07:05:45;3.35;;;2.00;;
75005;SDS011;63553;51.814;4.600;2023-03-14T07:08:10;2.88;;;1.90;;
75005;SDS011;63553;51.814;4.600;2023-03-14T07:10:35;4.65;;;2.20;;
75005;SDS011;63553;51.814;4.600;2023-03-14T07:13:01;5.85;;;2.17;;
75005;SDS011;63553;51.814;4.600;2023-03-14T07:15:26;2.73;;;1.50;;
75005;SDS011;63553;51.814;4.600;2023-03-14T07:17:51;1.97;;;1.50;;
75005;SDS011;63553;51.814;4.600;2023-03-14T07:20:17;4.30;;;1.42;;
75005;SDS011;63553;51.814;4.600;2023-03-14T07:22:42;2.28;;;1.50;;
75005;SDS011;63553;51.814;4.600;2023-03-14T07:25:08;3.83;;;2.05;;
75005;SDS011;63553;51.814;4.600;2023-03-14T07:27:37;9.25;;;1.77;;
75005;SDS011;63553;51.814;4.600;2023-03-14T07:30:02;4.50;;;1.40;;
75005;SDS011;63553;51.814;4.600;2023-03-14T07:32:28;4.05;;;1.48;;
75005;SDS011;63553;51.814;4.600;2023-03-14T07:34:54;4.07;;;1.57;;
75005;SDS011;63553;51.814;4.600;2023-03-14T07:37:19;3.00;;;1.38;;
75005;SDS011;63553;51.814;4.600;2023-03-14T07:39:44;16.85;;;2.38;;
75005;SDS011;63553;51.814;4.600;2023-03-14T07:42:10;5.87;;;1.60;;
75005;SDS011;63553;51.814;4.600;2023-03-14T07:44:36;10.65;;;2.35;;
75005;SDS011;63553;51.814;4.600;2023-03-14T07:47:01;5.82;;;2.53;;
75005;SDS011;63553;51.814;4.600;2023-03-14T07:49:26;4.28;;;1.60;;
75005;SDS011;63553;51.814;4.600;2023-03-14T07:51:52;4.10;;;1.57;;
75005;SDS011;63553;51.814;4.600;2023-03-14T07:54:17;2.53;;;1.50;;
75005;SDS011;63553;51.814;4.600;2023-03-14T07:56:42;1.50;;;1.40;;
75005;SDS011;63553;51.814;4.600;2023-03-14T07:59:08;3.10;;;1.43;;
75005;SDS011;63553;51.814;4.600;2023-03-14T08:01:33;3.80;;;1.52;;
75005;SDS011;63553;51.814;4.600;2023-03-14T08:03:59;2.35;;;1.42;;
75005;SDS011;63553;51.814;4.600;2023-03-14T08:06:24;1.55;;;1.02;;
75005;SDS011;63553;51.814;4.600;2023-03-14T08:08:50;2.35;;;1.45;;
75005;SDS011;63553;51.814;4.600;2023-03-14T08:11:15;3.00;;;1.63;;
75005;SDS011;63553;51.814;4.600;2023-03-14T08:13:40;3.05;;;1.00;;
75005;SDS011;63553;51.814;4.600;2023-03-14T08:16:06;1.92;;;1.20;;
75005;SDS011;63553;51.814;4.600;2023-03-14T08:18:31;2.58;;;1.17;;
75005;SDS011;63553;51.814;4.600;2023-03-14T08:20:57;1.25;;;0.70;;
75005;SDS011;63553;51.814;4.600;2023-03-14T08:23:23;1.10;;;1.00;;
75005;SDS011;63553;51.814;4.600;2023-03-14T08:25:49;3.67;;;1.17;;
75005;SDS011;63553;51.814;4.600;2023-03-14T08:28:15;4.40;;;0.90;;
75005;SDS011;63553;51.814;4.600;2023-03-14T08:30:41;3.25;;;0.93;;
75005;SDS011;63553;51.814;4.600;2023-03-14T08:33:06;2.57;;;0.80;;
75005;SDS011;63553;51.814;4.600;2023-03-14T08:35:31;1.77;;;0.90;;
75005;SDS011;63553;51.814;4.600;2023-03-14T08:37:56;1.55;;;0.70;;
75005;SDS011;63553;51.814;4.600;2023-03-14T08:40:22;3.30;;;1.35;;
75005;SDS011;63553;51.814;4.600;2023-03-14T08:42:47;3.57;;;0.83;;
75005;SDS011;63553;51.814;4.600;2023-03-14T08:45:13;2.93;;;1.00;;
75005;SDS011;63553;51.814;4.600;2023-03-14T08:47:41;0.73;;;0.73;;
75005;SDS011;63553;51.814;4.600;2023-03-14T08:50:07;3.10;;;0.90;;
75005;SDS011;63553;51.814;4.600;2023-03-14T08:52:34;1.85;;;1.00;;
75005;SDS011;63553;51.814;4.600;2023-03-14T08:54:59;2.22;;;0.82;;
75005;SDS011;63553;51.814;4.600;2023-03-14T08:57:25;6.97;;;2.58;;
75005;SDS011;63553;51.814;4.600;2023-03-14T08:59:54;2.88;;;0.90;;
75005;SDS011;63553;51.814;4.600;2023-03-14T09:02:21;3.13;;;0.90;;
75005;SDS011;63553;51.814;4.600;2023-03-14T09:04:46;1.17;;;0.70;;
75005;SDS011;63553;51.814;4.600;2023-03-14T09:07:12;1.57;;;0.83;;
75005;SDS011;63553;51.814;4.600;2023-03-14T09:09:37;2.10;;;0.98;;
75005;SDS011;63553;51.814;4.600;2023-03-14T09:12:03;1.30;;;0.80;;
75005;SDS011;63553;51.814;4.600;2023-03-14T09:14:29;3.90;;;0.95;;
75005;SDS011;63553;51.814;4.600;2023-03-14T09:16:55;0.77;;;0.77;;
75005;SDS011;63553;51.814;4.600;2023-03-14T09:19:20;2.90;;;1.00;;
75005;SDS011;63553;51.814;4.600;2023-03-14T09:21:45;2.35;;;0.85;;
75005;SDS011;63553;51.814;4.600;2023-03-14T09:24:11;5.50;;;1.50;;
75005;SDS011;63553;51.814;4.600;2023-03-14T09:26:36;3.45;;;0.90;;
75005;SDS011;63553;51.814;4.600;2023-03-14T09:29:01;4.47;;;1.23;;
75005;SDS011;63553;51.814;4.600;2023-03-14T09:31:27;3.13;;;1.23;;
75005;SDS011;63553;51.814;4.600;2023-03-14T09:33:53;2.83;;;1.63;;
75005;SDS011;63553;51.814;4.600;2023-03-14T09:36:18;4.70;;;1.60;;
75005;SDS011;63553;51.814;4.600;2023-03-14T09:38:44;5.70;;;1.33;;
75005;SDS011;63553;51.814;4.600;2023-03-14T09:41:16;2.70;;;1.10;;
75005;SDS011;63553;51.814;4.600;2023-03-14T09:43:46;4.68;;;1.15;;
75005;SDS011;63553;51.814;4.600;2023-03-14T09:46:15;3.58;;;1.23;;
75005;SDS011;63553;51.814;4.600;2023-03-14T09:48:41;5.63;;;1.33;;
75005;SDS011;63553;51.814;4.600;2023-03-14T09:51:12;4.53;;;0.85;;
75005;SDS011;63553;51.814;4.600;2023-03-14T09:53:40;3.20;;;1.10;;
75005;SDS011;63553;51.814;4.600;2023-03-14T09:56:12;3.15;;;1.20;;
75005;SDS011;63553;51.814;4.600;2023-03-14T09:58:43;5.25;;;2.25;;
75005;SDS011;63553;51.814;4.600;2023-03-14T10:01:11;6.78;;;1.50;;
75005;SDS011;63553;51.814;4.600;2023-03-14T10:06:11;12.07;;;2.05;;
75005;SDS011;63553;51.814;4.600;2023-03-14T10:08:42;4.22;;;1.48;;
75005;SDS011;63553;51.814;4.600;2023-03-14T10:11:16;8.32;;;1.08;;
75005;SDS011;63553;51.814;4.600;2023-03-14T10:13:49;5.47;;;1.75;;
75005;SDS011;63553;51.814;4.600;2023-03-14T10:16:32;3.88;;;1.15;;
75005;SDS011;63553;51.814;4.600;2023-03-14T10:19:12;6.47;;;2.13;;
75005;SDS011;63553;51.814;4.600;2023-03-14T10:21:40;11.15;;;1.90;;
75005;SDS011;63553;51.814;4.600;2023-03-14T10:24:53;9.82;;;1.50;;
75005;SDS011;63553;51.814;4.600;2023-03-14T10:27:04;7.50;;;1.80;;
75005;SDS011;63553;51.814;4.600;2023-03-14T10:29:55;8.27;;;2.28;;
75005;SDS011;63553;51.814;4.600;2023-03-14T10:32:33;6.90;;;1.83;;
75005;SDS011;63553;51.814;4.600;2023-03-14T10:35:21;6.55;;;1.52;;
75005;SDS011;63553;51.814;4.600;2023-03-14T10:40:24;7.38;;;1.92;;
75005;SDS011;63553;51.814;4.600;2023-03-14T10:43:03;5.43;;;1.45;;
75005;SDS011;63553;51.814;4.600;2023-03-14T10:48:05;5.97;;;1.52;;
75005;SDS011;63553;51.814;4.600;2023-03-14T10:53:44;10.43;;;1.70;;
75005;SDS011;63553;51.814;4.600;2023-03-14T10:56:14;5.65;;;1.60;;
75005;SDS011;63553;51.814;4.600;2023-03-14T11:10:03;7.68;;;1.55;;
75005;SDS011;63553;51.814;4.600;2023-03-14T11:20:47;5.63;;;1.90;;
75005;SDS011;63553;51.814;4.600;2023-03-14T11:23:27;9.80;;;2.25;;
75005;SDS011;63553;51.814;4.600;2023-03-14T11:27:17;8.65;;;1.90;;
75005;SDS011;63553;51.814;4.600;2023-03-14T11:32:02;7.22;;;1.52;;
75005;SDS011;63553;51.814;4.600;2023-03-14T11:34:50;4.47;;;1.30;;
75005;SDS011;63553;51.814;4.600;2023-03-14T11:37:27;5.40;;;1.40;;
75005;SDS011;63553;51.814;4.600;2023-03-14T11:40:10;6.10;;;2.40;;
75005;SDS011;63553;51.814;4.600;2023-03-14T11:42:39;8.85;;;2.20;;
75005;SDS011;63553;51.814;4.600;2023-03-14T11:45:18;5.72;;;1.30;;
75005;SDS011;63553;51.814;4.600;2023-03-14T11:47:50;4.15;;;1.48;;
75005;SDS011;63553;51.814;4.600;2023-03-14T11:50:23;4.13;;;1.20;;
75005;SDS011;63553;51.814;4.600;2023-03-14T11:53:05;7.15;;;1.30;;
75005;SDS011;63553;51.814;4.600;2023-03-14T11:55:36;5.03;;;1.30;;
75005;SDS011;63553;51.814;4.600;2023-03-14T11:58:12;4.40;;;1.50;;
75005;SDS011;63553;51.814;4.600;2023-03-14T12:00:51;4.78;;;1.17;;
75005;SDS011;63553;51.814;4.600;2023-03-14T12:09:00;3.47;;;1.10;;
75005;SDS011;63553;51.814;4.600;2023-03-14T12:14:19;2.60;;;1.23;;
75005;SDS011;63553;51.814;4.600;2023-03-14T12:16:48;3.42;;;1.10;;
75005;SDS011;63553;51.814;4.600;2023-03-14T12:21:52;2.95;;;1.33;;
75005;SDS011;63553;51.814;4.600;2023-03-14T12:24:23;3.75;;;1.05;;
75005;SDS011;63553;51.814;4.600;2023-03-14T12:26:56;5.00;;;1.25;;
75005;SDS011;63553;51.814;4.600;2023-03-14T12:29:23;4.13;;;1.20;;
75005;SDS011;63553;51.814;4.600;2023-03-14T12:32:05;3.35;;;1.10;;
75005;SDS011;63553;51.814;4.600;2023-03-14T12:34:34;7.22;;;1.70;;
75005;SDS011;63553;51.814;4.600;2023-03-14T12:47:50;5.18;;;1.42;;
75005;SDS011;63553;51.814;4.600;2023-03-14T12:50:19;3.83;;;1.30;;
75005;SDS011;63553;51.814;4.600;2023-03-14T12:52:52;4.88;;;1.08;;
75005;SDS011;63553;51.814;4.600;2023-03-14T12:55:33;6.03;;;1.23;;
75005;SDS011;63553;51.814;4.600;2023-03-14T13:00:57;3.08;;;1.13;;
75005;SDS011;63553;51.814;4.600;2023-03-14T13:03:26;5.43;;;1.33;;
75005;SDS011;63553;51.814;4.600;2023-03-14T13:06:04;9.02;;;1.40;;
75005;SDS011;63553;51.814;4.600;2023-03-14T13:11:04;4.30;;;1.00;;
75005;SDS011;63553;51.814;4.600;2023-03-14T13:14:00;2.25;;;1.38;;
75005;SDS011;63553;51.814;4.600;2023-03-14T13:16:25;3.63;;;1.23;;
75005;SDS011;63553;51.814;4.600;2023-03-14T13:19:02;5.50;;;1.80;;
75005;SDS011;63553;51.814;4.600;2023-03-14T13:21:36;2.97;;;0.95;;
75005;SDS011;63553;51.814;4.600;2023-03-14T13:24:03;4.35;;;1.13;;
75005;SDS011;63553;51.814;4.600;2023-03-14T13:26:35;4.28;;;1.55;;
75005;SDS011;63553;51.814;4.600;2023-03-14T13:29:09;4.50;;;1.13;;
75005;SDS011;63553;51.814;4.600;2023-03-14T13:31:43;2.00;;;0.75;;
75005;SDS011;63553;51.814;4.600;2023-03-14T13:34:10;2.95;;;1.05;;
75005;SDS011;63553;51.814;4.600;2023-03-14T13:36:36;4.80;;;1.30;;
75005;SDS011;63553;51.814;4.600;2023-03-14T13:39:02;3.75;;;1.48;;
75005;SDS011;63553;51.814;4.600;2023-03-14T13:41:29;2.22;;;1.10;;
75005;SDS011;63553;51.814;4.600;2023-03-14T13:43:58;1.95;;;0.85;;
75005;SDS011;63553;51.814;4.600;2023-03-14T13:46:28;3.72;;;1.00;;
75005;SDS011;63553;51.814;4.600;2023-03-14T13:48:55;2.95;;;1.10;;
75005;SDS011;63553;51.814;4.600;2023-03-14T13:51:22;5.90;;;1.48;;
75005;SDS011;63553;51.814;4.600;2023-03-14T13:53:50;3.42;;;1.05;;
75005;SDS011;63553;51.814;4.600;2023-03-14T13:56:19;5.05;;;1.13;;
75005;SDS011;63553;51.814;4.600;2023-03-14T13:58:49;5.05;;;1.13;;
75005;SDS011;63553;51.814;4.600;2023-03-14T14:01:25;4.47;;;1.08;;
75005;SDS011;63553;51.814;4.600;2023-03-14T14:03:52;6.10;;;1.05;;
75005;SDS011;63553;51.814;4.600;2023-03-14T14:06:36;4.45;;;1.10;;
75005;SDS011;63553;51.814;4.600;2023-03-14T14:09:16;3.28;;;1.25;;
75005;SDS011;63553;51.814;4.600;2023-03-14T14:16:59;8.02;;;1.95;;
75005;SDS011;63553;51.814;4.600;2023-03-14T14:19:29;7.55;;;1.50;;
75005;SDS011;63553;51.814;4.600;2023-03-14T14:21:58;3.53;;;1.20;;
75005;SDS011;63553;51.814;4.600;2023-03-14T14:24:24;4.63;;;1.10;;
75005;SDS011;63553;51.814;4.600;2023-03-14T14:26:54;2.95;;;1.00;;
75005;SDS011;63553;51.814;4.600;2023-03-14T14:29:25;3.10;;;0.98;;
75005;SDS011;63553;51.814;4.600;2023-03-14T14:32:03;4.22;;;1.00;;
75005;SDS011;63553;51.814;4.600;2023-03-14T14:34:40;4.72;;;1.10;;
75005;SDS011;63553;51.814;4.600;2023-03-14T14:37:17;4.28;;;1.40;;
75005;SDS011;63553;51.814;4.600;2023-03-14T14:39:44;3.25;;;1.23;;
75005;SDS011;63553;51.814;4.600;2023-03-14T14:42:13;4.43;;;1.20;;
75005;SDS011;63553;51.814;4.600;2023-03-14T14:44:40;5.68;;;1.35;;
75005;SDS011;63553;51.814;4.600;2023-03-14T14:47:11;1.40;;;1.00;;
75005;SDS011;63553;51.814;4.600;2023-03-14T14:49:43;2.80;;;1.20;;
75005;SDS011;63553;51.814;4.600;2023-03-14T14:54:42;7.03;;;1.33;;
75005;SDS011;63553;51.814;4.600;2023-03-14T14:57:20;5.13;;;1.30;;
75005;SDS011;63553;51.814;4.600;2023-03-14T14:59:50;3.95;;;1.13;;
75005;SDS011;63553;51.814;4.600;2023-03-14T15:02:35;3.67;;;1.23;;
75005;SDS011;63553;51.814;4.600;2023-03-14T15:05:12;6.40;;;1.38;;
75005;SDS011;63553;51.814;4.600;2023-03-14T15:07:41;5.78;;;1.15;;
75005;SDS011;63553;51.814;4.600;2023-03-14T15:10:09;10.43;;;1.98;;
75005;SDS011;63553;51.814;4.600;2023-03-14T15:12:35;5.40;;;1.25;;
75005;SDS011;63553;51.814;4.600;2023-03-14T15:15:01;3.08;;;1.30;;
75005;SDS011;63553;51.814;4.600;2023-03-14T15:17:26;6.23;;;1.40;;
75005;SDS011;63553;51.814;4.600;2023-03-14T15:19:53;4.30;;;1.17;;
75005;SDS011;63553;51.814;4.600;2023-03-14T15:22:20;7.78;;;1.50;;
75005;SDS011;63553;51.814;4.600;2023-03-14T15:24:45;3.80;;;1.10;;
75005;SDS011;63553;51.814;4.600;2023-03-14T15:27:14;3.10;;;1.23;;
75005;SDS011;63553;51.814;4.600;2023-03-14T15:29:41;6.30;;;1.10;;
75005;SDS011;63553;51.814;4.600;2023-03-14T15:32:13;5.32;;;1.48;;
75005;SDS011;63553;51.814;4.600;2023-03-14T15:34:40;3.75;;;1.60;;
75005;SDS011;63553;51.814;4.600;2023-03-14T15:37:10;2.90;;;1.30;;
75005;SDS011;63553;51.814;4.600;2023-03-14T15:39:37;2.80;;;1.23;;
75005;SDS011;63553;51.814;4.600;2023-03-14T15:42:03;8.18;;;1.23;;
75005;SDS011;63553;51.814;4.600;2023-03-14T15:44:29;4.77;;;1.33;;
75005;SDS011;63553;51.814;4.600;2023-03-14T15:46:54;5.05;;;1.65;;
75005;SDS011;63553;51.814;4.600;2023-03-14T15:49:19;3.67;;;1.30;;
75005;SDS011;63553;51.814;4.600;2023-03-14T15:51:45;4.03;;;1.10;;
75005;SDS011;63553;51.814;4.600;2023-03-14T15:54:10;7.18;;;1.85;;
75005;SDS011;63553;51.814;4.600;2023-03-14T15:56:35;4.53;;;1.40;;
75005;SDS011;63553;51.814;4.600;2023-03-14T15:59:01;3.80;;;1.73;;
75005;SDS011;63553;51.814;4.600;2023-03-14T16:01:26;2.73;;;1.00;;
75005;SDS011;63553;51.814;4.600;2023-03-14T16:03:51;2.97;;;1.70;;
75005;SDS011;63553;51.814;4.600;2023-03-14T16:06:17;3.13;;;1.17;;
75005;SDS011;63553;51.814;4.600;2023-03-14T16:08:43;4.20;;;1.50;;
75005;SDS011;63553;51.814;4.600;2023-03-14T16:11:09;2.30;;;1.10;;
75005;SDS011;63553;51.814;4.600;2023-03-14T16:13:35;3.90;;;1.50;;